Time;durP1;ratioP1;P1;durP2;ratioP2;P2;SDS_P1;SDS_P2;PMS_P1;PMS_P2;Temp;Humidity;BMP_temperature;BMP_pressure;BME280_temperature;BME280_humidity;BME280_pressure;Samples;Min_cycle;Max_cycle;Signal;HPM_P1;HPM_P2
2021/01/21 00:02:22;;;;;;;9.10;8.20;;;;;;;0.10;100.00;97120.13;4993490;28;20662;-85
2021/01/21 00:04:49;;;;;;;9.50;7.77;;;;;;;0.18;100.00;97124.94;4993915;28;20306;-85
2021/01/21 00:07:16;;;;;;;12.33;9.43;;;;;;;0.04;100.00;97122.19;4993494;28;20579;-84
2021/01/21 00:09:42;;;;;;;8.77;5.53;;;;;;;0.35;100.00;97116.38;4993393;28;20204;-84
2021/01/21 00:12:15;;;;;;;8.83;5.97;;;;;;;0.39;100.00;97116.13;4993369;28;20226;-83
2021/01/21 00:14:48;;;;;;;8.50;6.73;;;;;;;0.28;100.00;97120.13;4993611;28;20238;-84
2021/01/21 00:17:15;;;;;;;7.17;5.20;;;;;;;0.49;100.00;97113.09;4993038;28;20207;-85
2021/01/21 00:19:49;;;;;;;5.77;4.83;;;;;;;0.46;100.00;97112.34;4993465;28;20574;-85
2021/01/21 00:22:16;;;;;;;7.20;5.27;;;;;;;0.39;100.00;97118.72;4992921;28;20200;-85
2021/01/21 00:24:43;;;;;;;6.93;4.63;;;;;;;0.42;100.00;97118.56;4993399;28;20294;-84
2021/01/21 00:27:19;;;;;;;5.27;4.23;;;;;;;0.51;100.00;97119.03;4993159;28;20247;-84
2021/01/21 00:29:45;;;;;;;7.17;6.47;;;;;;;0.55;100.00;97115.38;4993222;28;20204;-85
2021/01/21 00:32:18;;;;;;;10.07;7.47;;;;;;;0.38;100.00;97122.22;4993022;28;20658;-84
2021/01/21 00:34:52;;;;;;;10.33;7.80;;;;;;;0.19;100.00;97124.84;4991696;28;20692;-84
2021/01/21 00:37:18;;;;;;;8.40;7.37;;;;;;;0.17;100.00;97126.69;4991945;28;20637;-84
2021/01/21 00:39:49;;;;;;;10.70;8.30;;;;;;;0.08;100.00;97124.53;4992695;28;20199;-84
2021/01/21 00:42:15;;;;;;;15.70;11.80;;;;;;;-0.16;100.00;97129.13;4993115;28;20278;-84
2021/01/21 00:44:42;;;;;;;15.47;12.17;;;;;;;-0.29;100.00;97136.59;4992786;28;20224;-84
2021/01/21 00:47:09;;;;;;;17.10;12.70;;;;;;;-0.40;100.00;97131.09;4992804;28;20204;-84
2021/01/21 00:49:36;;;;;;;15.43;11.83;;;;;;;-0.28;100.00;97125.38;4992928;28;20204;-83
2021/01/21 00:52:07;;;;;;;10.90;7.83;;;;;;;-0.33;100.00;97127.31;4992780;28;20715;-84
2021/01/21 00:54:34;;;;;;;10.57;7.57;;;;;;;-0.35;100.00;97131.69;4992680;28;20193;-84
2021/01/21 00:57:01;;;;;;;10.10;7.80;;;;;;;-0.44;100.00;97126.97;4992867;28;20283;-84
2021/01/21 00:59:28;;;;;;;7.77;5.67;;;;;;;-0.36;100.00;97121.44;4992512;28;20278;-84
2021/01/21 01:01:55;;;;;;;7.23;5.47;;;;;;;-0.30;100.00;97119.41;4992528;28;20259;-84
2021/01/21 01:04:21;;;;;;;7.23;5.33;;;;;;;-0.25;100.00;97119.19;4992604;28;20228;-84
2021/01/21 01:06:48;;;;;;;6.53;5.33;;;;;;;-0.33;100.00;97114.41;4991649;28;20207;-84
2021/01/21 01:09:16;;;;;;;6.67;6.07;;;;;;;-0.31;100.00;97106.59;4992959;28;20285;-84
2021/01/21 01:11:46;;;;;;;6.43;4.93;;;;;;;-0.23;100.00;97111.41;4992613;28;20266;-84
2021/01/21 01:14:13;;;;;;;6.97;5.63;;;;;;;-0.34;100.00;97115.31;4992848;28;20287;-84
2021/01/21 01:16:42;;;;;;;7.67;5.60;;;;;;;-0.30;100.00;97106.50;4992588;28;20200;-84
2021/01/21 01:19:09;;;;;;;5.63;4.60;;;;;;;-0.29;100.00;97100.41;4992490;28;20200;-84
2021/01/21 01:21:36;;;;;;;5.47;3.60;;;;;;;-0.08;100.00;97103.75;4992284;28;20207;-84
2021/01/21 01:24:03;;;;;;;4.10;3.50;;;;;;;-0.02;100.00;97106.03;4992453;28;20679;-84
2021/01/21 01:26:31;;;;;;;4.87;3.40;;;;;;;-0.03;100.00;97099.22;4992239;28;20661;-83
2021/01/21 01:28:58;;;;;;;5.53;3.60;;;;;;;-0.06;100.00;97103.69;4992087;28;20200;-83
2021/01/21 01:31:26;;;;;;;4.97;4.33;;;;;;;-0.10;100.00;97099.56;4992596;28;20204;-84
2021/01/21 01:33:55;;;;;;;3.83;3.43;;;;;;;-0.13;100.00;97095.38;4992129;28;20203;-84
2021/01/21 01:36:22;;;;;;;4.23;3.67;;;;;;;-0.17;100.00;97098.16;4992211;28;20673;-84
2021/01/21 01:38:49;;;;;;;3.50;3.20;;;;;;;-0.33;100.00;97088.56;4992023;28;20236;-84
2021/01/21 01:41:16;;;;;;;5.10;3.73;;;;;;;-0.36;100.00;97082.72;4991766;28;20204;-84
2021/01/21 01:43:44;;;;;;;4.17;3.20;;;;;;;-0.32;100.00;97085.06;4992518;28;20314;-84
2021/01/21 01:46:10;;;;;;;3.70;3.37;;;;;;;-0.31;100.00;97089.34;4992235;28;20688;-84
2021/01/21 01:48:37;;;;;;;4.93;3.27;;;;;;;-0.38;100.00;97081.94;4992189;28;20200;-84
2021/01/21 01:51:05;;;;;;;4.20;3.80;;;;;;;-0.43;100.00;97079.56;4991946;28;20223;-83
2021/01/21 01:53:33;;;;;;;4.63;2.90;;;;;;;-0.53;100.00;97073.97;4992113;28;20200;-84
2021/01/21 01:56:01;;;;;;;3.77;3.30;;;;;;;-0.57;100.00;97076.78;4992187;28;20212;-84
2021/01/21 01:58:30;;;;;;;4.13;3.43;;;;;;;-0.63;100.00;97071.91;4991797;28;20283;-84
2021/01/21 02:01:00;;;;;;;6.03;3.67;;;;;;;-0.64;100.00;97068.47;4992362;28;20196;-83
2021/01/21 02:03:27;;;;;;;5.87;4.23;;;;;;;-0.61;100.00;97070.09;4991688;28;20236;-83
2021/01/21 02:05:54;;;;;;;5.00;4.03;;;;;;;-0.65;100.00;97068.56;4992173;28;20200;-83
2021/01/21 02:08:23;;;;;;;4.57;3.97;;;;;;;-0.68;100.00;97072.13;4991759;28;20200;-83
2021/01/21 02:10:51;;;;;;;4.13;3.20;;;;;;;-0.51;100.00;97061.84;4992212;28;20292;-83
2021/01/21 02:13:27;;;;;;;5.27;3.60;;;;;;;-0.45;100.00;97057.28;4991929;28;20201;-83
2021/01/21 02:16:14;;;;;;;5.37;4.07;;;;;;;-0.57;100.00;97049.22;4992080;28;20216;-83
2021/01/21 02:18:43;;;;;;;7.17;4.87;;;;;;;-0.46;100.00;97056.47;4994444;28;20191;-84
2021/01/21 02:21:52;;;;;;;7.27;4.30;;;;;;;-0.45;100.00;97058.16;4995536;28;20199;-83
2021/01/21 02:25:02;;;;;;;6.60;5.50;;;;;;;-0.52;100.00;97059.31;4995528;28;20224;-84
2021/01/21 02:28:04;;;;;;;10.47;6.67;;;;;;;-0.75;100.00;97060.41;4970148;28;20204;-83
2021/01/21 02:30:45;;;;;;;8.10;5.70;;;;;;;-0.79;100.00;97062.28;4960646;28;20218;-83
2021/01/21 02:33:29;;;;;;;10.80;7.77;;;;;;;-0.73;100.00;97059.44;4994733;28;20201;-83
2021/01/21 02:36:01;;;;;;;5.53;5.00;;;;;;;-0.74;100.00;97057.75;4995405;28;20185;-83
2021/01/21 02:38:31;;;;;;;7.13;4.90;;;;;;;-0.73;100.00;97053.41;4993541;28;20724;-84
2021/01/21 02:40:59;;;;;;;4.03;3.57;;;;;;;-0.79;100.00;97066.63;4995160;28;20254;-83
2021/01/21 02:43:26;;;;;;;4.67;3.87;;;;;;;-0.70;100.00;97055.84;4994939;28;20200;-83
2021/01/21 02:45:53;;;;;;;4.83;4.10;;;;;;;-0.78;100.00;97058.78;4995107;28;20239;-83
2021/01/21 02:48:20;;;;;;;5.07;4.23;;;;;;;-0.89;100.00;97060.19;4994937;28;20210;-83
2021/01/21 02:50:54;;;;;;;5.87;4.03;;;;;;;-0.87;100.00;97066.94;4994860;28;20232;-83
2021/01/21 02:53:22;;;;;;;5.07;4.43;;;;;;;-0.77;100.00;97063.03;4994894;28;20184;-84
2021/01/21 02:55:57;;;;;;;7.00;3.33;;;;;;;-0.70;100.00;97065.34;4995314;28;20223;-83
2021/01/21 02:58:31;;;;;;;3.37;3.07;;;;;;;-0.80;100.00;97065.75;4994745;28;20199;-83
2021/01/21 03:01:01;;;;;;;6.37;3.50;;;;;;;-0.70;100.00;97080.84;4994626;28;20192;-83
2021/01/21 03:03:30;;;;;;;4.07;3.67;;;;;;;-0.75;100.00;97081.88;4995050;28;20188;-83
2021/01/21 03:05:59;;;;;;;5.07;4.30;;;;;;;-0.68;100.00;97079.88;4994818;28;20206;-83
2021/01/21 03:08:29;;;;;;;6.77;4.63;;;;;;;-0.81;100.00;97082.16;4994367;28;20684;-83
2021/01/21 03:11:09;;;;;;;5.77;4.33;;;;;;;-0.94;100.00;97078.44;4994783;28;20204;-83
2021/01/21 03:13:36;;;;;;;8.67;6.47;;;;;;;-1.00;100.00;97084.72;4994634;28;20184;-83
2021/01/21 03:16:03;;;;;;;9.77;6.80;;;;;;;-1.02;100.00;97077.94;4994486;28;20200;-83
2021/01/21 03:18:30;;;;;;;9.90;6.40;;;;;;;-0.94;100.00;97073.28;4994525;28;20619;-83
2021/01/21 03:20:57;;;;;;;7.50;5.23;;;;;;;-0.93;100.00;97074.97;4994571;28;20204;-83
2021/01/21 03:23:24;;;;;;;5.53;5.03;;;;;;;-0.92;100.00;97070.66;4994558;28;20285;-83
2021/01/21 03:25:52;;;;;;;5.93;4.80;;;;;;;-0.94;100.00;97067.28;4994292;28;20239;-83
2021/01/21 03:28:18;;;;;;;5.40;4.87;;;;;;;-0.79;100.00;97070.03;4994037;28;20211;-83
2021/01/21 03:30:45;;;;;;;8.10;5.83;;;;;;;-0.81;100.00;97068.41;4993621;28;20197;-83
2021/01/21 03:33:12;;;;;;;8.80;6.97;;;;;;;-0.88;100.00;97065.28;4994501;28;20588;-83
2021/01/21 03:35:45;;;;;;;8.17;5.00;;;;;;;-0.90;100.00;97074.84;4994220;28;20291;-83
2021/01/21 03:38:15;;;;;;;7.77;5.73;;;;;;;-0.91;100.00;97074.88;4993907;28;20326;-83
2021/01/21 03:40:41;;;;;;;8.10;5.33;;;;;;;-0.69;100.00;97069.59;4993998;28;20243;-83
2021/01/21 03:43:15;;;;;;;6.63;5.73;;;;;;;-0.85;100.00;97072.03;4994007;28;20236;-83
2021/01/21 03:45:42;;;;;;;6.73;5.53;;;;;;;-0.90;100.00;97076.56;4994316;28;20227;-83
2021/01/21 03:48:09;;;;;;;12.50;6.60;;;;;;;-0.98;100.00;97082.91;4993542;28;20209;-83
2021/01/21 03:50:36;;;;;;;9.33;6.47;;;;;;;-0.92;100.00;97071.47;4993907;28;20203;-83
2021/01/21 03:53:03;;;;;;;9.83;6.90;;;;;;;-0.94;100.00;97085.34;4993878;28;20208;-85
2021/01/21 03:55:30;;;;;;;9.53;6.80;;;;;;;-0.96;100.00;97082.84;4993925;28;20196;-85
2021/01/21 03:57:57;;;;;;;6.73;4.73;;;;;;;-0.96;100.00;97075.09;4993719;28;20200;-84
2021/01/21 04:00:25;;;;;;;7.27;5.03;;;;;;;-1.06;100.00;97076.41;4993849;28;20271;-83
2021/01/21 04:02:51;;;;;;;13.43;9.30;;;;;;;-1.14;100.00;97088.78;4993602;28;20240;-84
2021/01/21 04:05:18;;;;;;;13.97;9.77;;;;;;;-1.25;100.00;97081.53;4993935;28;20319;-83
2021/01/21 04:07:48;;;;;;;12.07;9.03;;;;;;;-1.41;100.00;97083.09;4993582;28;20207;-84
2021/01/21 04:10:18;;;;;;;54.30;26.47;;;;;;;-1.48;100.00;97085.94;4993245;28;20208;-83
2021/01/21 04:12:45;;;;;;;56.00;28.60;;;;;;;-1.41;100.00;97081.38;4993651;28;20581;-84
2021/01/21 04:15:12;;;;;;;46.60;25.97;;;;;;;-1.25;100.00;97089.25;4993417;28;20251;-84
2021/01/21 04:17:49;;;;;;;34.37;20.70;;;;;;;-1.07;100.00;97092.81;4993334;28;20290;-85
2021/01/21 04:20:16;;;;;;;29.20;16.77;;;;;;;-1.21;100.00;97094.25;4993407;28;20286;-84
2021/01/21 04:22:43;;;;;;;78.53;40.97;;;;;;;-1.40;100.00;97083.03;4993061;28;20211;-84
2021/01/21 04:25:11;;;;;;;40.30;24.57;;;;;;;-1.53;100.00;97087.03;4993002;28;20231;-83
2021/01/21 04:27:37;;;;;;;38.43;24.33;;;;;;;-1.32;100.00;97096.41;4993086;28;20196;-84
2021/01/21 04:30:06;;;;;;;94.90;47.03;;;;;;;-1.38;100.00;97101.03;4993015;28;20571;-84
2021/01/21 04:32:33;;;;;;;28.03;16.37;;;;;;;-1.57;100.00;97098.38;4993152;28;20196;-84
2021/01/21 04:35:00;;;;;;;14.97;9.17;;;;;;;-1.67;100.00;97097.91;4987041;28;20331;-84
2021/01/21 04:37:27;;;;;;;13.43;6.90;;;;;;;-1.55;100.00;97096.59;4990486;28;20207;-83
2021/01/21 04:39:54;;;;;;;6.90;5.23;;;;;;;-1.67;100.00;97103.91;4990434;28;20199;-83
2021/01/21 04:42:21;;;;;;;6.90;5.23;;;;;;;-1.65;100.00;97101.28;4990949;28;20243;-82
2021/01/21 04:44:47;;;;;;;8.37;6.53;;;;;;;-1.50;100.00;97104.94;4990766;28;20251;-83
2021/01/21 04:47:16;;;;;;;6.60;5.43;;;;;;;-1.51;100.00;97113.59;4990806;28;20281;-83
2021/01/21 04:49:45;;;;;;;8.43;6.33;;;;;;;-1.46;100.00;97114.22;4990533;28;20244;-83
2021/01/21 04:52:14;;;;;;;8.93;7.13;;;;;;;-1.50;100.00;97117.84;4990139;28;20252;-83
2021/01/21 04:54:44;;;;;;;9.67;7.77;;;;;;;-1.59;100.00;97118.22;4991155;28;20612;-83
2021/01/21 04:57:14;;;;;;;6.87;6.17;;;;;;;-1.62;100.00;97115.78;4990756;28;20204;-83
2021/01/21 04:59:42;;;;;;;7.23;5.47;;;;;;;-1.58;100.00;97118.16;4990868;28;20251;-83
2021/01/21 05:02:10;;;;;;;7.13;5.10;;;;;;;-1.56;100.00;97115.50;4990423;28;20924;-83
2021/01/21 05:04:37;;;;;;;6.17;4.77;;;;;;;-1.61;100.00;97123.44;4991310;28;20220;-84
2021/01/21 05:07:07;;;;;;;7.70;5.20;;;;;;;-1.66;100.00;97130.53;4992583;28;20206;-83
2021/01/21 05:09:41;;;;;;;6.10;4.83;;;;;;;-1.63;100.00;97119.25;4992268;28;20290;-85
2021/01/21 05:12:09;;;;;;;5.40;4.50;;;;;;;-1.52;100.00;97123.06;4992842;28;20608;-83
2021/01/21 05:14:36;;;;;;;5.40;4.90;;;;;;;-1.51;100.00;97131.63;4992483;28;20755;-82
2021/01/21 05:17:03;;;;;;;5.40;4.90;;;;;;;-1.58;100.00;97125.91;4992344;28;20192;-83
2021/01/21 05:19:33;;;;;;;6.50;5.23;;;;;;;-1.49;100.00;97129.81;4990292;28;20208;-83
2021/01/21 05:22:01;;;;;;;8.83;5.03;;;;;;;-1.47;100.00;97135.75;4992518;28;20243;-83
2021/01/21 05:24:28;;;;;;;4.87;4.07;;;;;;;-1.45;100.00;97131.38;4992441;28;20263;-83
2021/01/21 05:26:56;;;;;;;5.13;4.17;;;;;;;-1.48;100.00;97136.66;4992406;28;20758;-83
2021/01/21 05:29:23;;;;;;;4.70;4.07;;;;;;;-1.54;100.00;97132.59;4992683;28;20222;-83
2021/01/21 05:31:50;;;;;;;6.03;4.90;;;;;;;-1.37;100.00;97131.06;4992396;28;20259;-83
2021/01/21 05:34:18;;;;;;;5.87;4.67;;;;;;;-1.24;100.00;97135.63;4992416;28;20291;-82
2021/01/21 05:36:45;;;;;;;6.33;5.73;;;;;;;-1.27;100.00;97134.94;4992328;28;20581;-83
2021/01/21 05:39:12;;;;;;;5.97;5.37;;;;;;;-1.20;100.00;97137.19;4992039;28;20323;-82
2021/01/21 05:41:39;;;;;;;8.80;6.17;;;;;;;-1.31;100.00;97135.97;4992322;28;20204;-83
2021/01/21 05:44:08;;;;;;;11.10;8.13;;;;;;;-1.36;100.00;97140.47;4992313;28;20228;-83
2021/01/21 05:46:35;;;;;;;7.27;5.77;;;;;;;-1.36;100.00;97140.47;4991940;28;20204;-82
2021/01/21 05:49:03;;;;;;;6.67;5.93;;;;;;;-1.40;100.00;97139.75;4992446;28;20207;-83
2021/01/21 05:51:30;;;;;;;5.47;4.90;;;;;;;-1.38;100.00;97137.97;4992226;28;20276;-83
2021/01/21 05:53:58;;;;;;;8.47;6.37;;;;;;;-1.43;100.00;97137.31;4995619;28;20228;-83
2021/01/21 05:56:26;;;;;;;10.10;7.93;;;;;;;-1.46;100.00;97143.41;4996353;28;20234;-83
2021/01/21 05:58:54;;;;;;;10.67;8.00;;;;;;;-1.37;100.00;97143.97;4995881;28;20204;-83
2021/01/21 06:01:24;;;;;;;11.37;8.60;;;;;;;-1.35;100.00;97150.75;4996271;28;20227;-82
2021/01/21 06:03:51;;;;;;;11.60;8.67;;;;;;;-1.42;100.00;97148.44;4995991;28;20208;-82
2021/01/21 06:06:17;;;;;;;14.63;11.57;;;;;;;-1.45;100.00;97142.53;4995875;28;20276;-83
2021/01/21 06:08:45;;;;;;;16.23;11.40;;;;;;;-1.25;100.00;97139.13;4996043;28;20204;-82
2021/01/21 06:11:12;;;;;;;18.10;14.27;;;;;;;-1.09;100.00;97147.03;4995749;28;20204;-83
2021/01/21 06:13:39;;;;;;;17.03;12.67;;;;;;;-1.20;100.00;97144.91;4996172;28;20203;-83
2021/01/21 06:16:08;;;;;;;19.50;13.87;;;;;;;-1.07;100.00;97144.41;4995600;28;20202;-83
2021/01/21 06:18:36;;;;;;;22.93;16.47;;;;;;;-1.13;100.00;97142.09;4995741;28;20291;-83
2021/01/21 06:21:03;;;;;;;30.40;17.77;;;;;;;-1.25;100.00;97144.28;4996000;28;20223;-83
2021/01/21 06:23:32;;;;;;;36.87;22.17;;;;;;;-1.26;100.00;97145.16;4995631;28;20819;-83
2021/01/21 06:26:00;;;;;;;38.90;24.30;;;;;;;-1.24;100.00;97143.38;4995616;28;20234;-83
2021/01/21 06:28:27;;;;;;;30.90;19.10;;;;;;;-1.20;100.00;97139.75;4995239;28;20294;-83
2021/01/21 06:30:58;;;;;;;29.33;19.83;;;;;;;-1.08;100.00;97145.28;4995558;28;20679;-83
2021/01/21 06:33:30;;;;;;;39.10;27.03;;;;;;;-0.97;100.00;97141.38;4995502;28;20189;-83
2021/01/21 06:36:03;;;;;;;47.63;31.23;;;;;;;-0.90;100.00;97141.06;4995445;28;20207;-83
2021/01/21 06:38:38;;;;;;;64.03;33.73;;;;;;;-0.74;100.00;97142.91;4995119;28;20310;-83
2021/01/21 06:41:08;;;;;;;56.47;29.43;;;;;;;-0.61;100.00;97147.56;4995385;28;20223;-83
2021/01/21 06:43:38;;;;;;;60.00;34.67;;;;;;;-0.64;100.00;97152.84;4995334;28;20275;-83
2021/01/21 06:46:07;;;;;;;61.00;42.67;;;;;;;-0.45;100.00;97148.56;4995348;28;20299;-82
2021/01/21 06:48:34;;;;;;;66.07;44.00;;;;;;;-0.53;100.00;97145.44;4995498;28;20201;-83
2021/01/21 06:51:07;;;;;;;78.60;44.90;;;;;;;-0.57;100.00;97141.34;4995644;28;20216;-83
2021/01/21 06:53:35;;;;;;;73.80;42.47;;;;;;;-0.43;100.00;97146.72;4995137;28;20239;-83
2021/01/21 06:56:02;;;;;;;66.07;45.90;;;;;;;-0.41;100.00;97141.50;4994890;28;20291;-83
2021/01/21 06:58:45;;;;;;;60.73;42.77;;;;;;;-0.31;100.00;97146.16;4995300;28;20208;-84
2021/01/21 07:01:45;;;;;;;39.03;29.00;;;;;;;-0.23;100.00;97143.22;4995120;28;20669;-83
2021/01/21 07:04:28;;;;;;;44.03;32.90;;;;;;;-0.45;100.00;97145.97;4984074;28;20228;-84
2021/01/21 07:07:15;;;;;;;67.27;38.93;;;;;;;-0.76;100.00;97147.34;4994797;28;20228;-84
2021/01/21 07:09:42;;;;;;;72.03;44.87;;;;;;;-0.51;100.00;97144.50;4994981;28;20188;-83
2021/01/21 07:12:18;;;;;;;73.37;45.37;;;;;;;-0.27;100.00;97150.28;4994974;28;20201;-83
2021/01/21 07:14:48;;;;;;;70.27;45.87;;;;;;;0.01;100.00;97159.34;4994869;28;20184;-83
2021/01/21 07:17:16;;;;;;;69.80;44.40;;;;;;;0.21;100.00;97148.06;4994402;28;20196;-83
2021/01/21 07:19:45;;;;;;;100.20;70.97;;;;;;;0.34;100.00;97146.53;4994723;28;20200;-84
2021/01/21 07:22:23;;;;;;;77.40;57.73;;;;;;;0.52;100.00;97146.56;4994494;28;20250;-84
2021/01/21 07:24:58;;;;;;;64.77;43.37;;;;;;;0.71;100.00;97148.16;4994589;28;20215;-84
2021/01/21 07:27:27;;;;;;;49.47;36.90;;;;;;;0.87;100.00;97144.81;4994153;28;20237;-84
2021/01/21 07:30:15;;;;;;;42.47;31.73;;;;;;;0.99;100.00;97140.75;4994555;28;20240;-83
2021/01/21 07:32:42;;;;;;;30.87;22.53;;;;;;;1.00;100.00;97151.03;4994659;28;20648;-84
2021/01/21 07:35:38;;;;;;;31.13;18.57;;;;;;;1.03;100.00;97148.28;4994217;28;20231;-84
2021/01/21 07:38:06;;;;;;;31.63;19.13;;;;;;;1.28;100.00;97152.19;4994014;28;20243;-84
2021/01/21 07:40:47;;;;;;;25.93;19.47;;;;;;;1.31;100.00;97152.03;4994372;28;20197;-84
2021/01/21 07:43:14;;;;;;;27.80;18.50;;;;;;;1.32;100.00;97154.56;4994452;28;20760;-83
2021/01/21 07:45:41;;;;;;;24.13;16.77;;;;;;;1.40;100.00;97155.00;4993992;28;20220;-84
2021/01/21 07:48:23;;;;;;;20.47;13.13;;;;;;;1.56;100.00;97155.03;4994027;28;20200;-84
2021/01/21 07:50:51;;;;;;;15.63;12.17;;;;;;;1.58;100.00;97160.94;4994467;28;20689;-84
2021/01/21 07:53:21;;;;;;;32.50;23.10;;;;;;;1.53;100.00;97162.97;4994253;28;20696;-84
2021/01/21 07:55:49;;;;;;;41.83;28.73;;;;;;;1.66;100.00;97153.63;4994119;28;20271;-84
2021/01/21 07:58:30;;;;;;;44.60;30.80;;;;;;;1.84;100.00;97156.16;4994194;28;20240;-84
2021/01/21 08:01:00;;;;;;;37.10;26.00;;;;;;;2.01;100.00;97148.28;4993943;28;20189;-84
2021/01/21 08:03:29;;;;;;;48.57;23.03;;;;;;;2.22;100.00;97148.00;4993815;28;20208;-84
2021/01/21 08:06:11;;;;;;;29.00;19.10;;;;;;;2.44;100.00;97151.06;4993495;28;20323;-84
2021/01/21 08:08:40;;;;;;;25.40;22.20;;;;;;;2.43;100.00;97153.75;4993804;28;20188;-84
2021/01/21 08:11:08;;;;;;;32.23;23.00;;;;;;;2.45;100.00;97157.09;4993653;28;20763;-84
2021/01/21 08:13:35;;;;;;;34.70;23.27;;;;;;;2.64;100.00;97162.09;4993911;28;20200;-85
2021/01/21 08:16:04;;;;;;;33.90;21.97;;;;;;;2.70;100.00;97161.72;4993305;28;20204;-84
2021/01/21 08:18:31;;;;;;;31.17;19.63;;;;;;;2.67;100.00;97160.16;4993316;28;20232;-85
2021/01/21 08:20:58;;;;;;;25.27;16.80;;;;;;;2.83;100.00;97173.91;4993914;28;20239;-85
2021/01/21 08:23:24;;;;;;;21.73;17.27;;;;;;;3.07;100.00;97168.19;4993732;28;20628;-85
2021/01/21 08:25:54;;;;;;;20.63;15.70;;;;;;;3.21;100.00;97164.78;4993432;28;20228;-85
2021/01/21 08:28:22;;;;;;;25.23;14.97;;;;;;;3.48;100.00;97164.91;4993163;28;20295;-84
2021/01/21 08:30:50;;;;;;;22.93;17.27;;;;;;;3.73;100.00;97175.47;4993539;28;20208;-84
2021/01/21 08:33:20;;;;;;;25.10;15.93;;;;;;;3.77;100.00;97170.91;4993190;28;20217;-84
2021/01/21 08:35:51;;;;;;;46.70;33.30;;;;;;;3.99;100.00;97176.47;4993480;28;20195;-85
2021/01/21 08:38:20;;;;;;;56.67;38.73;;;;;;;4.25;100.00;97176.59;4992879;28;20728;-85
2021/01/21 08:40:48;;;;;;;45.57;24.83;;;;;;;4.25;100.00;97167.00;4993240;28;20283;-84
2021/01/21 08:43:19;;;;;;;23.67;18.63;;;;;;;4.22;100.00;97172.41;4993087;28;20192;-85
2021/01/21 08:45:46;;;;;;;27.37;19.60;;;;;;;4.19;100.00;97167.41;4993118;28;20245;-85
2021/01/21 08:48:26;;;;;;;25.23;17.20;;;;;;;4.29;100.00;97170.25;4993032;28;20204;-85
2021/01/21 08:50:53;;;;;;;60.97;29.07;;;;;;;4.53;100.00;97160.03;4992988;28;20275;-85
2021/01/21 08:53:23;;;;;;;32.20;20.77;;;;;;;4.66;100.00;97163.50;4993077;28;20208;-85
2021/01/21 08:55:52;;;;;;;20.23;13.23;;;;;;;4.52;100.00;97164.41;4992995;28;20294;-85
2021/01/21 08:58:21;;;;;;;16.40;11.97;;;;;;;4.83;100.00;97165.03;4992808;28;20204;-85
2021/01/21 09:01:02;;;;;;;22.67;12.57;;;;;;;4.96;100.00;97152.03;4992750;28;20282;-85
2021/01/21 09:03:38;;;;;;;11.93;9.57;;;;;;;5.25;100.00;97158.72;4992781;28;20707;-85
2021/01/21 09:06:08;;;;;;;11.40;8.80;;;;;;;5.38;100.00;97156.09;4992680;28;20219;-85
2021/01/21 09:08:50;;;;;;;11.57;8.23;;;;;;;5.37;100.00;97151.84;4992866;28;20177;-84
2021/01/21 09:11:28;;;;;;;8.43;6.43;;;;;;;5.31;100.00;97154.84;4992516;28;20743;-85
2021/01/21 09:13:55;;;;;;;16.40;10.70;;;;;;;5.49;100.00;97144.94;4992797;28;20208;-85
2021/01/21 09:16:40;;;;;;;12.03;8.63;;;;;;;5.83;100.00;97146.03;4992679;28;20292;-86
2021/01/21 09:19:07;;;;;;;9.80;8.50;;;;;;;5.88;100.00;97145.72;4993070;28;20211;-85
2021/01/21 09:21:34;;;;;;;14.77;9.73;;;;;;;5.70;100.00;97145.22;4992637;28;20673;-86
2021/01/21 09:24:05;;;;;;;11.13;8.77;;;;;;;5.81;100.00;97142.69;4992634;28;20200;-85
2021/01/21 09:26:32;;;;;;;13.00;8.00;;;;;;;5.99;100.00;97137.97;4992270;28;20374;-85
2021/01/21 09:29:00;;;;;;;18.53;11.27;;;;;;;5.89;100.00;97136.97;4992360;28;20246;-85
2021/01/21 09:31:29;;;;;;;14.97;9.67;;;;;;;5.55;100.00;97134.09;4992269;28;20211;-85
2021/01/21 09:33:56;;;;;;;15.43;10.40;;;;;;;5.93;100.00;97141.88;4992581;28;20207;-85
2021/01/21 09:36:27;;;;;;;15.23;10.97;;;;;;;5.95;100.00;97131.31;4992658;28;20566;-85
2021/01/21 09:38:55;;;;;;;16.17;10.87;;;;;;;5.94;100.00;97130.50;4992292;28;20626;-86
2021/01/21 09:41:22;;;;;;;16.83;10.87;;;;;;;5.64;100.00;97130.00;4992410;28;20211;-85
2021/01/21 09:43:49;;;;;;;15.03;10.17;;;;;;;5.91;100.00;97120.25;4992500;28;20235;-86
2021/01/21 09:46:17;;;;;;;14.03;10.17;;;;;;;6.28;100.00;97128.09;4992320;28;20274;-85
2021/01/21 09:48:43;;;;;;;12.93;10.27;;;;;;;6.69;100.00;97116.41;4992479;28;20284;-85
2021/01/21 09:51:10;;;;;;;12.50;9.77;;;;;;;6.53;100.00;97115.84;4992292;28;20693;-85
2021/01/21 09:53:37;;;;;;;17.47;11.07;;;;;;;6.79;100.00;97112.16;4992748;28;20588;-85
2021/01/21 09:56:04;;;;;;;11.87;9.70;;;;;;;6.74;100.00;97110.81;4992133;28;20700;-85
2021/01/21 09:58:31;;;;;;;14.00;10.00;;;;;;;7.35;100.00;97107.00;4992346;28;20287;-85
2021/01/21 10:00:58;;;;;;;15.20;10.97;;;;;;;7.33;100.00;97108.91;4992426;28;20644;-86
2021/01/21 10:03:26;;;;;;;15.20;10.73;;;;;;;7.85;100.00;97099.59;4992526;28;20227;-86
2021/01/21 10:05:52;;;;;;;19.60;12.37;;;;;;;8.36;100.00;97103.44;4992045;28;20220;-86
2021/01/21 10:08:19;;;;;;;15.40;9.93;;;;;;;7.91;100.00;97100.09;4992340;28;20200;-85
2021/01/21 10:10:46;;;;;;;16.67;10.00;;;;;;;8.02;100.00;97097.44;4992411;28;20290;-86
2021/01/21 10:13:13;;;;;;;12.90;9.97;;;;;;;8.63;100.00;97096.94;4992087;28;20211;-86
2021/01/21 10:15:40;;;;;;;14.73;11.40;;;;;;;8.94;100.00;97084.75;4992198;28;20196;-86
2021/01/21 10:18:07;;;;;;;13.90;9.60;;;;;;;8.87;100.00;97079.19;4992258;28;20546;-86
2021/01/21 10:20:35;;;;;;;12.93;9.23;;;;;;;9.18;100.00;97080.06;4992174;28;20228;-86
2021/01/21 10:23:01;;;;;;;11.13;9.77;;;;;;;9.24;100.00;97071.63;4992033;28;20207;-86
2021/01/21 10:25:28;;;;;;;12.07;9.00;;;;;;;9.11;100.00;97071.03;4992397;28;20301;-86
2021/01/21 10:27:55;;;;;;;11.60;9.10;;;;;;;8.90;100.00;97072.81;4992027;28;20215;-86
2021/01/21 10:30:23;;;;;;;12.60;9.93;;;;;;;8.98;100.00;97067.78;4992072;28;20250;-87
2021/01/21 10:32:49;;;;;;;11.90;9.93;;;;;;;9.26;100.00;97059.22;4992032;28;20200;-87
2021/01/21 10:35:16;;;;;;;12.33;9.77;;;;;;;9.76;100.00;97067.16;4992308;28;20239;-86
2021/01/21 10:37:44;;;;;;;15.27;9.93;;;;;;;9.87;100.00;97060.97;4991918;28;20287;-86
2021/01/21 10:40:12;;;;;;;9.90;7.77;;;;;;;9.75;100.00;97056.78;4995555;28;20188;-86
2021/01/21 10:42:39;;;;;;;11.13;8.73;;;;;;;9.83;100.00;97045.59;4995342;28;20204;-86
2021/01/21 10:45:07;;;;;;;18.63;9.40;;;;;;;10.29;100.00;97047.66;4995337;28;20723;-86
2021/01/21 10:47:34;;;;;;;11.57;8.80;;;;;;;10.35;100.00;97038.38;4995259;28;20794;-86
2021/01/21 10:50:00;;;;;;;9.43;7.63;;;;;;;10.50;100.00;97044.06;4995438;28;20288;-86
2021/01/21 10:52:27;;;;;;;11.57;8.13;;;;;;;10.50;100.00;97044.06;4995589;28;20204;-86
2021/01/21 10:54:55;;;;;;;10.70;8.43;;;;;;;10.33;100.00;97037.69;4995432;28;20627;-86
2021/01/21 10:57:22;;;;;;;11.30;7.60;;;;;;;10.11;100.00;97038.75;4995207;28;20576;-85
2021/01/21 10:59:49;;;;;;;10.13;7.47;;;;;;;9.60;100.00;97027.47;4995183;28;20200;-87
2021/01/21 11:02:16;;;;;;;11.07;8.07;;;;;;;9.75;100.00;97023.50;4994890;28;20243;-87
2021/01/21 11:04:43;;;;;;;14.23;9.00;;;;;;;9.87;100.00;97026.00;4995283;28;20315;-87
2021/01/21 11:07:10;;;;;;;10.77;9.40;;;;;;;9.92;100.00;97029.06;4995043;28;20292;-86
2021/01/21 11:09:37;;;;;;;10.93;9.10;;;;;;;9.69;100.00;97021.41;4995738;28;20556;-87
2021/01/21 11:12:06;;;;;;;17.53;13.17;;;;;;;10.17;100.00;97009.31;4995203;28;20274;-86
2021/01/21 11:14:34;;;;;;;22.30;16.57;;;;;;;9.58;100.00;97003.13;4995059;28;20196;-87
2021/01/21 11:17:00;;;;;;;14.77;12.77;;;;;;;9.66;100.00;97003.28;4994807;28;20204;-87
2021/01/21 11:19:27;;;;;;;25.27;16.23;;;;;;;9.52;100.00;97003.66;4994905;28;20196;-87
2021/01/21 11:21:54;;;;;;;23.93;15.07;;;;;;;8.88;100.00;96993.50;4994958;28;20232;-87
2021/01/21 11:24:21;;;;;;;19.40;15.60;;;;;;;8.65;100.00;96993.63;4994867;28;20240;-87
2021/01/21 11:26:48;;;;;;;16.83;14.63;;;;;;;8.76;100.00;96990.09;4994634;28;20200;-87
2021/01/21 11:29:16;;;;;;;21.23;16.50;;;;;;;9.12;100.00;96991.41;4994554;28;20215;-86
2021/01/21 11:31:43;;;;;;;25.53;17.90;;;;;;;9.46;100.00;96989.31;4994881;28;20278;-86
2021/01/21 11:34:09;;;;;;;19.13;14.47;;;;;;;9.36;100.00;96990.25;4994672;28;20583;-87